Olustee, Oklahoma
Current Conditions -  °F | °C
As of 11:58 AM on Tuesday 21 Oct 2014 (Local Time) from KLTS Reporting Station
Clear Clear  
Wind Chill: 78°   Ceiling: Unl
Heat Index: 79°   Visibility: 10mi
Dew Point: 57°   Wind: 7mph
Humidity: 48%   Direction: 200°SSW
Pressure: 30.1"   Gusts: NA
Location:  34.55°N, 99.42°W
Report Text: KLTS 211658Z 20006KT 10SM CLR 26/14 A3010 RMK AO2A SLP182 T02550139 $
Loading
Personal Weather Stations






























Interactive Weather Map
Tropical Storm Tracking
New forecast layout! Learn more

10-Day Weather Forecast

Advertisements
Track Severe Weather on mobile